createdAt,value
2022-08-01T00:01:14.919Z,22.10
2022-08-01T00:04:01.571Z,22.20
2022-08-01T00:06:47.546Z,22.10
2022-08-01T00:09:33.570Z,22.00
2022-08-01T00:12:19.416Z,22.00
2022-08-01T00:15:07.367Z,22.00
2022-08-01T00:17:53.334Z,21.90
2022-08-01T00:20:39.233Z,21.80
2022-08-01T00:23:25.265Z,21.70
2022-08-01T00:26:11.353Z,21.60
2022-08-01T00:28:57.282Z,21.50
2022-08-01T00:31:43.266Z,21.40
2022-08-01T00:34:29.207Z,21.30
2022-08-01T00:37:15.975Z,21.30
2022-08-01T00:40:02.293Z,21.20
2022-08-01T00:42:48.323Z,21.20
2022-08-01T00:45:34.297Z,21.20
2022-08-01T00:48:20.430Z,21.20
2022-08-01T00:51:06.536Z,21.20
2022-08-01T00:53:53.626Z,21.10
2022-08-01T00:56:41.441Z,21.20
2022-08-01T00:59:28.018Z,21.30
2022-08-01T01:02:14.936Z,21.30
2022-08-01T01:05:02.079Z,21.30
2022-08-01T01:07:50.784Z,21.30
2022-08-01T01:10:40.036Z,21.30
2022-08-01T01:13:50.079Z,21.20
2022-08-01T01:16:41.887Z,21.20
2022-08-01T01:19:34.211Z,21.10
2022-08-01T01:22:36.213Z,21.00
2022-08-01T01:25:25.290Z,21.00
2022-08-01T01:28:33.413Z,21.00
2022-08-01T01:31:22.242Z,20.90
2022-08-01T01:34:10.342Z,20.90
2022-08-01T01:36:59.135Z,20.70
2022-08-01T01:39:54.357Z,20.60
2022-08-01T01:42:42.349Z,20.60
2022-08-01T01:45:30.655Z,20.50
2022-08-01T01:48:20.440Z,20.50
2022-08-01T01:51:07.372Z,20.40
2022-08-01T01:53:56.261Z,20.30
2022-08-01T01:56:52.297Z,20.30
2022-08-01T01:59:40.614Z,20.30
2022-08-01T02:02:27.955Z,20.30
2022-08-01T02:05:14.926Z,20.30
2022-08-01T02:08:02.122Z,20.30
2022-08-01T02:11:07.779Z,20.30
2022-08-01T02:14:04.714Z,20.30
2022-08-01T02:16:51.442Z,20.20
2022-08-01T02:19:38.954Z,20.20
2022-08-01T02:22:49.529Z,20.20
2022-08-01T02:26:09.252Z,20.20
2022-08-01T02:28:55.284Z,20.20
2022-08-01T02:31:46.638Z,20.20
2022-08-01T02:34:34.082Z,20.10
2022-08-01T02:37:22.030Z,20.10
2022-08-01T02:40:14.373Z,20.10
2022-08-01T02:43:04.586Z,20.00
2022-08-01T02:46:01.178Z,19.90
2022-08-01T02:48:49.012Z,19.90
2022-08-01T02:51:37.020Z,19.90
2022-08-01T02:54:24.670Z,19.90
2022-08-01T02:57:13.653Z,19.90
2022-08-01T03:00:00.638Z,19.90
2022-08-01T03:02:51.516Z,19.80
2022-08-01T03:05:38.673Z,19.80
2022-08-01T03:08:26.174Z,19.80
2022-08-01T03:11:14.281Z,19.80
2022-08-01T03:14:03.600Z,19.80
2022-08-01T03:16:51.193Z,19.80
2022-08-01T03:19:39.194Z,19.80
2022-08-01T03:22:28.907Z,19.80
2022-08-01T03:25:16.368Z,19.80
2022-08-01T03:28:05.669Z,19.80
2022-08-01T03:30:52.822Z,19.80
2022-08-01T03:33:38.619Z,19.80
2022-08-01T03:36:27.910Z,19.80
2022-08-01T03:39:16.174Z,19.80
2022-08-01T03:42:09.610Z,19.80
2022-08-01T03:45:00.228Z,19.70
2022-08-01T03:47:49.231Z,19.70
2022-08-01T03:50:42.281Z,19.70
2022-08-01T03:53:32.977Z,19.70
2022-08-01T03:56:21.121Z,19.60
2022-08-01T03:59:07.418Z,19.50
2022-08-01T04:01:54.790Z,19.50
2022-08-01T04:04:41.553Z,19.40
2022-08-01T04:07:29.961Z,19.40
2022-08-01T04:10:16.036Z,19.30
2022-08-01T04:13:02.675Z,19.30
2022-08-01T04:15:48.837Z,19.20
2022-08-01T04:18:35.491Z,19.10
2022-08-01T04:21:28.560Z,19.10
2022-08-01T04:24:18.697Z,19.20
2022-08-01T04:27:11.202Z,19.20
2022-08-01T04:29:59.861Z,19.30
2022-08-01T04:32:47.537Z,19.30
2022-08-01T04:36:03.541Z,19.30
2022-08-01T04:38:43.078Z,19.30
2022-08-01T04:41:31.577Z,19.40
2022-08-01T04:44:17.931Z,19.40
2022-08-01T04:47:08.659Z,19.50
2022-08-01T04:49:57.634Z,19.50
2022-08-01T04:52:43.637Z,19.60
2022-08-01T04:55:32.299Z,19.70
2022-08-01T04:58:19.163Z,19.80
2022-08-01T05:01:05.354Z,19.90
2022-08-01T05:03:51.607Z,20.00
2022-08-01T05:06:37.386Z,20.10
2022-08-01T05:09:24.102Z,20.20
2022-08-01T05:12:11.956Z,20.30
2022-08-01T05:14:57.894Z,20.40
2022-08-01T05:17:43.830Z,20.50
2022-08-01T05:20:29.688Z,20.50
2022-08-01T05:23:31.567Z,20.60
2022-08-01T05:26:21.829Z,20.60
2022-08-01T05:29:08.006Z,20.60
2022-08-01T05:31:54.826Z,20.70
2022-08-01T05:34:40.674Z,20.70
2022-08-01T05:37:26.766Z,20.70
2022-08-01T05:40:12.986Z,20.80
2022-08-01T05:42:58.850Z,20.90
2022-08-01T05:45:45.554Z,21.00
2022-08-01T05:48:31.745Z,21.00
2022-08-01T05:51:17.793Z,21.10
2022-08-01T05:54:03.946Z,21.10
2022-08-01T05:56:49.915Z,21.10
2022-08-01T05:59:37.376Z,21.20
2022-08-01T06:02:23.380Z,21.20
2022-08-01T06:05:13.297Z,21.20
2022-08-01T06:07:59.878Z,21.20
2022-08-01T06:10:45.857Z,21.30
2022-08-01T06:13:31.778Z,21.40
2022-08-01T06:16:17.929Z,21.40
2022-08-01T06:19:04.193Z,21.40
2022-08-01T06:21:50.091Z,21.40
2022-08-01T06:24:36.136Z,21.50
2022-08-01T06:27:22.910Z,21.60
2022-08-01T06:30:10.100Z,21.60
2022-08-01T06:33:00.921Z,21.70
2022-08-01T06:35:46.950Z,21.70
2022-08-01T06:38:32.982Z,21.70
2022-08-01T06:41:19.049Z,21.80
2022-08-01T06:44:05.513Z,21.80
2022-08-01T06:46:52.145Z,21.80
2022-08-01T06:49:38.104Z,21.80
2022-08-01T06:52:24.598Z,21.90
2022-08-01T06:55:11.006Z,22.00
2022-08-01T06:57:57.172Z,22.10
2022-08-01T07:00:43.366Z,22.20
2022-08-01T07:03:52.344Z,22.30
2022-08-01T07:06:35.735Z,22.30
2022-08-01T07:09:21.646Z,22.40
2022-08-01T07:12:08.455Z,22.40
2022-08-01T07:14:54.961Z,22.60
2022-08-01T07:17:43.071Z,22.70
2022-08-01T07:20:29.261Z,22.80
2022-08-01T07:23:15.821Z,23.00
2022-08-01T07:26:03.486Z,23.00
2022-08-01T07:28:49.414Z,23.10
2022-08-01T07:31:35.283Z,23.20
2022-08-01T07:34:22.216Z,23.30
2022-08-01T07:37:08.491Z,23.40
2022-08-01T07:39:54.367Z,23.30
2022-08-01T07:42:44.332Z,23.30
2022-08-01T07:45:31.483Z,23.30
2022-08-01T07:48:17.780Z,23.30
2022-08-01T07:51:03.993Z,23.40
2022-08-01T07:53:50.034Z,23.40
2022-08-01T07:56:35.838Z,23.40
2022-08-01T07:59:26.201Z,23.50
2022-08-01T08:02:12.695Z,23.50
2022-08-01T08:04:59.085Z,23.60
2022-08-01T08:07:45.234Z,23.60
2022-08-01T08:10:31.414Z,23.80
2022-08-01T08:13:17.536Z,23.80
2022-08-01T08:16:04.962Z,23.90
2022-08-01T08:18:51.038Z,23.90
2022-08-01T08:21:37.502Z,24.00
2022-08-01T08:24:27.329Z,24.20
2022-08-01T08:27:13.872Z,24.20
2022-08-01T08:30:00.114Z,24.30
2022-08-01T08:32:45.954Z,24.40
2022-08-01T08:35:40.241Z,24.60
2022-08-01T08:38:38.394Z,24.60
2022-08-01T08:41:26.350Z,24.70
2022-08-01T08:44:12.319Z,24.70
2022-08-01T08:47:01.602Z,24.80
2022-08-01T08:49:49.844Z,24.80
2022-08-01T08:52:38.906Z,24.80
2022-08-01T08:55:25.632Z,24.80
2022-08-01T08:58:15.953Z,24.80
2022-08-01T09:01:02.269Z,24.90
2022-08-01T09:03:48.726Z,24.90
2022-08-01T09:06:36.140Z,25.00
2022-08-01T09:09:22.314Z,25.10
2022-08-01T09:12:09.080Z,25.10
2022-08-01T09:14:55.663Z,25.20
2022-08-01T09:17:42.741Z,25.30
2022-08-01T09:20:31.250Z,25.50
2022-08-01T09:23:53.955Z,25.70
2022-08-01T09:26:40.583Z,25.90
2022-08-01T09:29:38.060Z,26.10
2022-08-01T09:32:29.366Z,26.30
2022-08-01T09:35:43.360Z,26.50
2022-08-01T09:38:32.463Z,26.60
2022-08-01T09:41:40.979Z,26.70
2022-08-01T09:44:54.865Z,26.80
2022-08-01T09:47:41.815Z,26.90
2022-08-01T09:50:40.701Z,26.90
2022-08-01T09:53:29.711Z,26.90
2022-08-01T09:56:17.364Z,27.00
2022-08-01T09:59:03.574Z,27.00
2022-08-01T10:01:50.975Z,27.30
2022-08-01T10:04:37.726Z,27.30
2022-08-01T10:07:27.712Z,27.50
2022-08-01T10:10:31.356Z,27.80
2022-08-01T10:13:17.988Z,28.10
2022-08-01T10:16:06.453Z,28.30
2022-08-01T10:18:52.919Z,28.60
2022-08-01T10:21:57.210Z,28.70
2022-08-01T10:24:48.217Z,28.70
2022-08-01T10:27:38.441Z,28.50
2022-08-01T10:30:26.486Z,28.80
2022-08-01T10:33:15.377Z,28.90
2022-08-01T10:36:22.540Z,28.80
2022-08-01T10:39:13.338Z,28.80
2022-08-01T10:42:00.467Z,28.70
2022-08-01T10:44:48.925Z,28.80
2022-08-01T10:48:01.303Z,28.90
2022-08-01T10:50:50.775Z,29.20
2022-08-01T10:53:42.720Z,29.30
2022-08-01T10:56:50.137Z,29.40
2022-08-01T11:00:01.049Z,29.60
2022-08-01T11:03:02.282Z,29.40
2022-08-01T11:05:53.629Z,29.00
2022-08-01T11:08:40.645Z,28.40
2022-08-01T11:11:28.869Z,28.20
2022-08-01T11:14:26.547Z,28.20
2022-08-01T11:17:37.427Z,28.30
2022-08-01T11:20:34.158Z,28.40
2022-08-01T11:23:21.795Z,28.60
2022-08-01T11:26:11.119Z,28.60
2022-08-01T11:29:21.990Z,28.60
2022-08-01T11:32:28.470Z,28.50
2022-08-01T11:35:17.033Z,28.40
2022-08-01T11:38:29.452Z,28.30
2022-08-01T11:41:38.071Z,28.20
2022-08-01T11:44:30.545Z,28.30
2022-08-01T11:47:17.002Z,28.50
2022-08-01T11:50:07.582Z,28.50
2022-08-01T11:53:03.277Z,28.40
2022-08-01T11:55:54.293Z,28.50
2022-08-01T11:58:40.242Z,28.80
2022-08-01T12:01:29.338Z,29.00
2022-08-01T12:04:15.590Z,29.20
2022-08-01T12:07:14.410Z,29.40
2022-08-01T12:10:08.268Z,29.50
2022-08-01T12:13:06.026Z,29.50
2022-08-01T12:15:56.511Z,29.60
2022-08-01T12:18:44.130Z,29.70
2022-08-01T12:21:30.000Z,29.70
2022-08-01T12:24:23.322Z,29.80
2022-08-01T12:27:11.013Z,29.90
2022-08-01T12:29:59.102Z,30.10
2022-08-01T12:32:47.862Z,30.20
2022-08-01T12:35:35.274Z,30.40
2022-08-01T12:38:27.992Z,30.20
2022-08-01T12:41:14.243Z,29.80
2022-08-01T12:44:00.626Z,29.80
2022-08-01T12:46:46.872Z,29.90
2022-08-01T12:49:34.797Z,29.90
2022-08-01T12:52:23.274Z,29.90
2022-08-01T12:55:18.892Z,29.60
2022-08-01T12:58:07.025Z,29.50
2022-08-01T13:01:07.474Z,29.30
2022-08-01T13:04:07.872Z,29.10
2022-08-01T13:06:54.766Z,28.90
2022-08-01T13:09:49.950Z,28.70
2022-08-01T13:12:36.689Z,28.50
2022-08-01T13:15:34.907Z,28.40
2022-08-01T13:18:33.402Z,28.30
2022-08-01T13:21:23.212Z,28.10
2022-08-01T13:24:14.454Z,28.00
2022-08-01T13:27:05.117Z,27.90
2022-08-01T13:29:53.872Z,27.80
2022-08-01T13:32:40.705Z,27.70
2022-08-01T13:35:28.347Z,27.50
2022-08-01T13:38:14.994Z,27.20
2022-08-01T13:41:01.011Z,26.90
2022-08-01T13:43:57.980Z,26.70
2022-08-01T13:46:49.703Z,26.60
2022-08-01T13:49:38.283Z,26.70
2022-08-01T13:52:27.246Z,26.80
2022-08-01T13:55:13.079Z,26.90
2022-08-01T13:57:58.865Z,27.00
2022-08-01T14:00:44.905Z,27.00
2022-08-01T14:03:33.935Z,27.00
2022-08-01T14:06:23.312Z,27.00
2022-08-01T14:09:17.718Z,26.90
2022-08-01T14:12:05.132Z,26.90
2022-08-01T14:14:54.385Z,26.90
2022-08-01T14:17:40.741Z,26.90
2022-08-01T14:20:35.541Z,26.90
2022-08-01T14:23:21.544Z,26.90
2022-08-01T14:26:12.265Z,27.00
2022-08-01T14:28:58.796Z,27.00
2022-08-01T14:31:44.826Z,27.10
2022-08-01T14:34:30.748Z,27.20
2022-08-01T14:37:16.783Z,27.30
2022-08-01T14:40:06.333Z,27.40
2022-08-01T14:42:53.654Z,27.50
2022-08-01T14:45:39.634Z,27.40
2022-08-01T14:48:26.265Z,27.40
2022-08-01T14:51:12.227Z,27.40
2022-08-01T14:53:58.128Z,27.40
2022-08-01T14:56:44.267Z,27.20
2022-08-01T14:59:34.827Z,26.90
2022-08-01T15:02:21.077Z,26.70
2022-08-01T15:05:07.847Z,26.50
2022-08-01T15:07:54.123Z,26.40
2022-08-01T15:10:41.262Z,26.20
2022-08-01T15:13:27.717Z,26.00
2022-08-01T15:16:13.729Z,25.90
2022-08-01T15:18:59.552Z,25.70
2022-08-01T15:21:45.662Z,25.60
2022-08-01T15:24:31.887Z,25.40
2022-08-01T15:27:18.527Z,25.30
2022-08-01T15:30:05.193Z,25.10
2022-08-01T15:32:51.519Z,25.00
2022-08-01T15:35:37.931Z,24.80
2022-08-01T15:38:23.944Z,24.60
2022-08-01T15:41:09.851Z,24.20
2022-08-01T15:43:56.332Z,23.80
2022-08-01T15:46:42.288Z,23.40
2022-08-01T15:49:28.553Z,22.90
2022-08-01T15:52:22.242Z,22.60
2022-08-01T15:55:09.713Z,22.30
2022-08-01T15:57:56.090Z,22.10
2022-08-01T16:00:42.154Z,22.00
2022-08-01T16:03:28.790Z,21.90
2022-08-01T16:06:15.579Z,21.90
2022-08-01T16:09:01.753Z,21.80
2022-08-01T16:11:50.727Z,21.80
2022-08-01T16:14:38.014Z,21.90
2022-08-01T16:17:24.187Z,21.90
2022-08-01T16:20:10.354Z,21.90
2022-08-01T16:22:56.593Z,22.00
2022-08-01T16:25:43.723Z,21.90
2022-08-01T16:28:30.016Z,21.80
2022-08-01T16:31:36.156Z,21.70
2022-08-01T16:34:23.673Z,21.70
2022-08-01T16:37:09.982Z,21.70
2022-08-01T16:39:56.400Z,21.80
2022-08-01T16:42:42.656Z,21.90
2022-08-01T16:45:28.598Z,22.00
2022-08-01T16:48:16.090Z,22.10
2022-08-01T16:51:02.201Z,22.20
2022-08-01T16:53:47.985Z,22.30
2022-08-01T16:56:34.440Z,22.30
2022-08-01T16:59:20.375Z,22.40
2022-08-01T17:02:06.345Z,22.40
2022-08-01T17:04:52.339Z,22.50
2022-08-01T17:07:39.475Z,22.50
2022-08-01T17:10:26.046Z,22.50
2022-08-01T17:13:12.480Z,22.60
2022-08-01T17:15:58.679Z,22.60
2022-08-01T17:18:45.117Z,22.60
2022-08-01T17:21:31.187Z,22.70
2022-08-01T17:24:17.137Z,22.80
2022-08-01T17:27:03.871Z,22.80
2022-08-01T17:29:50.280Z,22.90
2022-08-01T17:32:36.309Z,23.00
2022-08-01T17:35:22.783Z,23.10
2022-08-01T17:38:09.233Z,23.20
2022-08-01T17:40:55.075Z,23.20
2022-08-01T17:43:41.114Z,23.20
2022-08-01T17:46:27.130Z,23.20
2022-08-01T17:49:13.129Z,23.20
2022-08-01T17:51:59.224Z,23.10
2022-08-01T17:54:45.030Z,23.10
2022-08-01T17:57:31.091Z,23.00
2022-08-01T18:00:17.131Z,23.00
2022-08-01T18:03:03.679Z,22.90
2022-08-01T18:05:54.439Z,22.90
2022-08-01T18:08:42.100Z,22.90
2022-08-01T18:11:28.423Z,22.90
2022-08-01T18:14:14.416Z,22.80
2022-08-01T18:17:00.778Z,22.80
2022-08-01T18:19:47.037Z,22.70
2022-08-01T18:22:34.210Z,22.60
2022-08-01T18:25:20.902Z,22.60
2022-08-01T18:28:22.517Z,22.50
2022-08-01T18:31:16.492Z,22.50
2022-08-01T18:34:02.716Z,22.30
2022-08-01T18:36:48.682Z,22.20
2022-08-01T18:39:34.761Z,22.20
2022-08-01T18:42:21.972Z,22.30
2022-08-01T18:45:08.486Z,22.30
2022-08-01T18:47:55.620Z,22.40
2022-08-01T18:50:41.979Z,22.40
2022-08-01T18:53:28.309Z,22.40
2022-08-01T18:56:14.319Z,22.50
2022-08-01T18:59:00.303Z,22.50
2022-08-01T19:01:46.343Z,22.50
2022-08-01T19:04:32.885Z,22.40
2022-08-01T19:07:39.548Z,22.30
2022-08-01T19:10:25.146Z,22.10
2022-08-01T19:13:11.755Z,22.00
2022-08-01T19:15:58.434Z,21.80
2022-08-01T19:18:46.327Z,21.60
2022-08-01T19:21:33.145Z,21.50
2022-08-01T19:24:23.301Z,21.50
2022-08-01T19:27:12.463Z,21.50
2022-08-01T19:30:02.223Z,21.60
2022-08-01T19:32:49.053Z,21.60
2022-08-01T19:35:36.303Z,21.70
2022-08-01T19:38:22.403Z,21.70
2022-08-01T19:41:08.783Z,21.70
2022-08-01T19:44:01.906Z,21.60
2022-08-01T19:46:48.413Z,21.60
2022-08-01T19:49:34.662Z,21.60
2022-08-01T19:52:26.027Z,21.60
2022-08-01T19:55:14.057Z,21.50
2022-08-01T20:01:11.172Z,21.10
2022-08-01T20:04:00.055Z,20.80
2022-08-01T20:06:50.560Z,20.60
2022-08-01T20:09:38.586Z,20.40
2022-08-01T20:12:24.641Z,20.20
2022-08-01T20:15:11.671Z,19.90
2022-08-01T20:17:59.072Z,19.50
2022-08-01T20:20:49.871Z,19.20
2022-08-01T20:23:39.156Z,19.00
2022-08-01T20:26:28.342Z,18.90
2022-08-01T20:29:16.119Z,19.00
2022-08-01T20:32:04.094Z,19.10
2022-08-01T20:34:52.086Z,19.20
2022-08-01T20:38:03.390Z,19.20
2022-08-01T20:40:49.741Z,19.30
2022-08-01T20:43:37.095Z,19.40
2022-08-01T20:46:28.183Z,19.40
2022-08-01T20:49:15.406Z,19.20
2022-08-01T20:52:11.331Z,19.10
2022-08-01T20:54:58.900Z,19.10
2022-08-01T20:57:50.009Z,19.10
2022-08-01T21:00:36.169Z,19.10
2022-08-01T21:03:26.269Z,19.10
2022-08-01T21:06:22.706Z,19.10
2022-08-01T21:09:10.370Z,19.00
2022-08-01T21:12:03.898Z,19.00
2022-08-01T21:14:53.001Z,19.00
2022-08-01T21:17:55.539Z,19.00
2022-08-01T21:20:56.102Z,19.00
2022-08-01T21:24:06.064Z,19.10
2022-08-01T21:26:53.313Z,19.10
2022-08-01T21:29:40.160Z,19.00
2022-08-01T21:32:30.049Z,19.00
2022-08-01T21:35:18.883Z,19.10
2022-08-01T21:38:05.886Z,19.10
2022-08-01T21:40:53.513Z,19.10
2022-08-01T21:43:42.293Z,19.10
2022-08-01T21:46:30.488Z,19.10
2022-08-01T21:49:16.653Z,19.10
2022-08-01T21:52:09.235Z,19.00
2022-08-01T21:55:15.727Z,18.90
2022-08-01T21:58:34.432Z,18.80
2022-08-01T22:01:23.615Z,18.70
2022-08-01T22:04:15.531Z,18.60
2022-08-01T22:07:03.504Z,18.60
2022-08-01T22:09:50.365Z,18.50
2022-08-01T22:12:36.442Z,18.40
2022-08-01T22:15:44.269Z,18.30
2022-08-01T22:18:33.450Z,18.30
2022-08-01T22:21:20.302Z,18.10
2022-08-01T22:24:06.908Z,17.90
2022-08-01T22:26:53.612Z,17.70
2022-08-01T22:29:39.726Z,17.50
2022-08-01T22:32:32.090Z,17.40
2022-08-01T22:35:18.434Z,17.20
2022-08-01T22:38:04.670Z,17.10
2022-08-01T22:40:53.675Z,16.90
2022-08-01T22:43:49.293Z,16.90
2022-08-01T22:46:58.799Z,16.80
2022-08-01T22:49:59.739Z,16.70
2022-08-01T22:53:09.418Z,16.70
2022-08-01T22:55:58.097Z,16.60
2022-08-01T22:58:48.489Z,16.50
2022-08-01T23:01:36.904Z,16.50
2022-08-01T23:04:33.910Z,16.50
2022-08-01T23:07:28.243Z,16.60
2022-08-01T23:10:15.368Z,16.60
2022-08-01T23:13:02.163Z,16.60
2022-08-01T23:15:52.353Z,16.60
2022-08-01T23:18:44.715Z,16.50
2022-08-01T23:21:32.382Z,16.60
2022-08-01T23:24:20.137Z,16.60
2022-08-01T23:27:25.706Z,16.60
2022-08-01T23:30:34.277Z,16.60
2022-08-01T23:33:20.566Z,16.60
2022-08-01T23:36:06.631Z,16.60
2022-08-01T23:38:52.892Z,16.60
2022-08-01T23:41:57.965Z,16.70
2022-08-01T23:44:44.899Z,16.70
2022-08-01T23:47:30.983Z,16.70
2022-08-01T23:50:16.907Z,16.70
2022-08-01T23:53:02.826Z,16.70
2022-08-01T23:55:48.871Z,16.70
2022-08-01T23:58:35.854Z,16.80
